createdAt,value
2023-01-17T00:09:20.313Z,96038.00
2023-01-17T00:19:39.972Z,96037.19
2023-01-17T00:29:41.314Z,96055.09
2023-01-17T00:39:42.754Z,96059.59
2023-01-17T00:50:02.890Z,96090.88
2023-01-17T01:00:23.272Z,96096.16
2023-01-17T01:10:43.047Z,96120.22
2023-01-17T01:21:03.156Z,96122.25
2023-01-17T01:31:23.460Z,96148.97
2023-01-17T01:41:24.850Z,96174.38
2023-01-17T01:51:29.532Z,96194.03
2023-01-17T02:01:30.984Z,96214.78
2023-01-17T02:11:32.618Z,96217.03
2023-01-17T02:21:40.800Z,96244.72
2023-01-17T02:31:45.327Z,96253.34
2023-01-17T02:41:49.401Z,96282.28
2023-01-17T02:52:15.624Z,96287.69
2023-01-17T03:02:40.165Z,96301.44
2023-01-17T03:12:41.568Z,96306.78
2023-01-17T03:22:43.093Z,96315.53
2023-01-17T03:32:44.464Z,96330.78
2023-01-17T03:42:45.896Z,96341.13
2023-01-17T03:52:47.299Z,96347.19
2023-01-17T04:02:48.812Z,96358.66
2023-01-17T04:12:50.284Z,96358.06
2023-01-17T04:22:51.665Z,96360.91
2023-01-17T04:32:53.117Z,96370.72
2023-01-17T04:42:54.515Z,96376.53
2023-01-17T04:52:55.882Z,96373.50
2023-01-17T05:02:57.321Z,96375.09
2023-01-17T05:12:59.097Z,96384.25
2023-01-17T05:23:00.539Z,96401.22
2023-01-17T05:33:01.916Z,96404.34
2023-01-17T05:43:03.760Z,96422.47
2023-01-17T05:53:08.026Z,96431.16
2023-01-17T06:03:09.423Z,96427.53
2023-01-17T06:13:12.413Z,96438.34
2023-01-17T06:23:14.220Z,96437.00
2023-01-17T06:33:15.641Z,96456.56
2023-01-17T06:43:17.056Z,96468.91
2023-01-17T06:53:18.460Z,96469.19
2023-01-17T07:03:21.554Z,96474.84
2023-01-17T07:13:22.940Z,96484.78
2023-01-17T07:23:24.421Z,96487.25
2023-01-17T07:33:25.855Z,96484.84
2023-01-17T07:43:27.236Z,96497.72
2023-01-17T07:53:29.756Z,96494.50
2023-01-17T08:03:32.389Z,96479.28
2023-01-17T08:13:33.820Z,96486.00
2023-01-17T08:23:35.232Z,96482.59
2023-01-17T08:33:36.638Z,96487.78
2023-01-17T08:43:38.006Z,96487.78
2023-01-17T08:53:40.485Z,96492.03
2023-01-17T09:03:41.960Z,96493.38
2023-01-17T09:13:43.350Z,96500.34
2023-01-17T09:23:44.767Z,96504.09
2023-01-17T09:33:46.901Z,96505.94
2023-01-17T09:43:55.777Z,96500.06
2023-01-17T09:53:57.029Z,96525.75
2023-01-17T10:04:10.573Z,96532.41
2023-01-17T10:14:22.108Z,96532.22
2023-01-17T10:24:54.108Z,96526.84
2023-01-17T10:34:55.654Z,96527.41
2023-01-17T10:45:21.485Z,96522.03
2023-01-17T10:55:36.620Z,96522.06
2023-01-17T11:05:38.015Z,96505.97
2023-01-17T11:15:39.647Z,96506.78
2023-01-17T11:25:41.549Z,96501.97
2023-01-17T11:35:46.088Z,96493.09
2023-01-17T11:46:03.928Z,96481.31
2023-01-17T11:56:06.069Z,96480.25
2023-01-17T12:06:25.041Z,96472.47
2023-01-17T12:16:55.735Z,96469.25
2023-01-17T12:27:19.292Z,96466.00
2023-01-17T12:37:31.641Z,96453.66
2023-01-17T12:47:36.127Z,96448.84
2023-01-17T12:57:43.044Z,96442.41
2023-01-17T13:08:05.167Z,96439.97
2023-01-17T13:18:14.188Z,96433.50
2023-01-17T13:28:36.264Z,96432.97
2023-01-17T13:38:43.736Z,96439.09
2023-01-17T13:48:45.126Z,96449.50
2023-01-17T13:58:54.822Z,96449.16
2023-01-17T14:09:15.226Z,96452.31
2023-01-17T14:19:25.176Z,96454.16
2023-01-17T14:29:46.327Z,96451.16
2023-01-17T14:39:49.022Z,96455.66
2023-01-17T14:49:50.997Z,96447.28
2023-01-17T14:59:52.382Z,96451.78
2023-01-17T15:09:53.786Z,96457.09
2023-01-17T15:20:01.333Z,96454.31
2023-01-17T15:30:04.148Z,96454.50
2023-01-17T15:40:18.521Z,96469.72
2023-01-17T15:50:20.024Z,96461.09
2023-01-17T16:00:24.174Z,96457.78
2023-01-17T16:10:31.626Z,96471.41
2023-01-17T16:20:35.143Z,96481.75
2023-01-17T16:30:36.570Z,96484.34
2023-01-17T16:40:44.690Z,96498.75
2023-01-17T16:50:50.201Z,96504.50
2023-01-17T17:00:51.714Z,96516.22
2023-01-17T17:10:53.175Z,96513.50
2023-01-17T17:20:54.720Z,96515.31
2023-01-17T17:31:03.751Z,96529.44
2023-01-17T17:41:06.650Z,96551.81
2023-01-17T17:51:19.000Z,96559.78
2023-01-17T18:01:24.287Z,96555.38
2023-01-17T18:11:26.524Z,96561.47
2023-01-17T18:21:31.045Z,96575.03
2023-01-17T18:31:32.633Z,96581.34
2023-01-17T18:41:34.493Z,96597.06
2023-01-17T18:51:35.890Z,96595.13
2023-01-17T19:01:37.550Z,96604.16
2023-01-17T19:11:39.007Z,96597.19
2023-01-17T19:21:40.418Z,96609.91
2023-01-17T19:31:43.321Z,96622.19
2023-01-17T19:41:45.191Z,96622.13
2023-01-17T19:51:46.853Z,96632.75
2023-01-17T20:01:49.100Z,96647.16
2023-01-17T20:11:51.087Z,96661.25
2023-01-17T20:21:53.137Z,96667.31
2023-01-17T20:31:54.718Z,96679.25
2023-01-17T20:41:56.183Z,96688.56
2023-01-17T20:51:59.819Z,96686.88
2023-01-17T21:02:01.481Z,96687.59
2023-01-17T21:12:03.002Z,96701.09
2023-01-17T21:22:05.432Z,96705.50
2023-01-17T21:32:08.545Z,96703.50
2023-01-17T21:42:09.930Z,96705.13
2023-01-17T21:52:11.427Z,96714.28
2023-01-17T22:02:12.866Z,96723.63
2023-01-17T22:12:14.310Z,96731.28
2023-01-17T22:22:15.706Z,96735.69
2023-01-17T22:32:17.117Z,96744.09
2023-01-17T22:42:18.526Z,96747.91
2023-01-17T22:52:20.043Z,96749.13
2023-01-17T23:02:21.480Z,96759.94
2023-01-17T23:12:22.901Z,96751.97
2023-01-17T23:22:26.882Z,96751.47
2023-01-17T23:32:28.575Z,96756.91
2023-01-17T23:42:48.285Z,96739.31
2023-01-17T23:52:49.692Z,96737.91
